Time;durP1;ratioP1;P1;durP2;ratioP2;P2;SDS_P1;SDS_P2;PMS_P1;PMS_P2;Temp;Humidity;BMP_temperature;BMP_pressure;BME280_temperature;BME280_humidity;BME280_pressure;Samples;Min_cycle;Max_cycle;Signal;HPM_P1;HPM_P2
2023/09/22 00:01:25;;;;;;;1.85;1.40;;;;;;;17.13;79.49;97820.56;7169446;40;20243;31
2023/09/22 00:06:45;;;;;;;1.40;1.10;;;;;;;17.12;78.63;97841.50;7302818;39;20468;31
2023/09/22 00:12:08;;;;;;;2.50;1.10;;;;;;;17.16;79.31;97835.59;7266822;40;20279;31
2023/09/22 00:22:47;;;;;;;1.00;0.90;;;;;;;17.12;79.12;97829.78;7294131;39;20790;31
2023/09/22 00:28:08;;;;;;;1.80;1.20;;;;;;;17.08;78.99;97834.06;7259950;40;20256;31
2023/09/22 00:33:40;;;;;;;1.76;1.20;;;;;;;17.04;79.16;97854.69;7280233;40;20356;31
2023/09/22 00:39:16;;;;;;;1.47;1.30;;;;;;;16.96;78.50;97825.94;7258130;40;20244;31
2023/09/22 00:44:51;;;;;;;1.60;1.20;;;;;;;16.99;78.80;97830.91;7271245;39;20337;31
2023/09/22 00:50:12;;;;;;;2.10;1.40;;;;;;;16.94;79.58;97822.63;7271788;40;20263;31
2023/09/22 00:55:49;;;;;;;2.60;1.37;;;;;;;16.89;79.11;97806.22;7281540;40;20240;31
2023/09/22 01:01:24;;;;;;;1.90;1.20;;;;;;;16.91;79.34;97825.00;7276196;40;20396;31
2023/09/22 01:07:01;;;;;;;2.10;1.13;;;;;;;16.82;79.17;97834.59;7314945;39;20263;31
2023/09/22 01:12:37;;;;;;;1.90;1.30;;;;;;;16.73;79.19;97847.75;7241349;40;20343;31
2023/09/22 01:17:59;;;;;;;1.63;1.30;;;;;;;16.78;79.13;97834.28;7267651;40;20259;31
2023/09/22 01:23:31;;;;;;;2.30;1.40;;;;;;;16.70;80.14;97831.91;7097837;39;20236;31
2023/09/22 01:28:52;;;;;;;2.15;1.35;;;;;;;16.68;79.77;97828.59;7294215;39;20331;31
2023/09/22 01:39:28;;;;;;;1.60;1.25;;;;;;;16.61;80.56;97891.31;7279089;40;21281;31
2023/09/22 01:44:48;;;;;;;2.60;1.40;;;;;;;16.63;80.44;97888.34;7296143;39;20239;31
2023/09/22 01:50:20;;;;;;;1.50;1.20;;;;;;;16.69;80.27;97862.91;7324927;39;20550;31
2023/09/22 01:55:56;;;;;;;1.80;1.40;;;;;;;16.71;80.14;97827.31;7278739;40;20264;31
2023/09/22 02:07:18;;;;;;;1.40;1.20;;;;;;;16.91;78.85;97793.19;7306232;39;20272;31
2023/09/22 02:17:59;;;;;;;2.10;1.23;;;;;;;16.93;78.76;97798.37;7346737;39;20265;31
2023/09/22 02:23:35;;;;;;;3.40;1.50;;;;;;;16.90;79.08;97816.00;7278463;39;20335;31
2023/09/22 02:34:20;;;;;;;2.20;1.40;;;;;;;16.99;78.78;97813.72;7237298;40;20288;31
2023/09/22 02:39:37;;;;;;;1.30;1.20;;;;;;;16.98;78.87;97837.41;7223379;40;20266;31
2023/09/22 02:45:12;;;;;;;2.83;1.30;;;;;;;16.89;78.36;97846.22;7275178;39;20257;31
2023/09/22 02:50:49;;;;;;;2.57;1.60;;;;;;;16.80;78.43;97829.44;7238745;40;20326;31
2023/09/22 02:56:09;;;;;;;2.00;1.30;;;;;;;16.80;78.95;97826.72;7197044;40;20308;31
2023/09/22 03:01:45;;;;;;;3.20;1.50;;;;;;;16.85;79.18;97812.38;7208110;40;20246;31
2023/09/22 03:07:17;;;;;;;1.67;1.10;;;;;;;16.81;78.87;97801.13;7287108;39;21767;31
2023/09/22 03:12:53;;;;;;;1.37;1.20;;;;;;;16.74;78.31;97796.88;7256774;40;20245;31
2023/09/22 03:18:13;;;;;;;2.85;1.40;;;;;;;16.79;79.12;97811.44;7238702;40;20253;31
2023/09/22 03:23:49;;;;;;;2.13;1.43;;;;;;;16.71;79.33;97832.75;7285225;39;20312;31
2023/09/22 03:29:09;;;;;;;3.70;1.50;;;;;;;16.73;79.00;97869.53;7241570;40;20249;31
2023/09/22 03:39:53;;;;;;;1.80;1.50;;;;;;;16.73;80.39;97896.75;7272640;40;21119;31
2023/09/22 03:45:28;;;;;;;2.63;1.60;;;;;;;16.65;81.28;97888.94;7291446;39;20318;31
2023/09/22 03:50:48;;;;;;;5.70;1.98;;;;;;;16.62;81.46;97876.66;7353769;39;20264;31
2023/09/22 03:56:22;;;;;;;5.80;2.30;;;;;;;16.61;81.64;97850.50;7340308;39;20268;31
2023/09/22 04:01:42;;;;;;;3.70;1.80;;;;;;;16.76;81.85;97860.09;7338795;39;20278;31
2023/09/22 04:07:14;;;;;;;5.77;1.87;;;;;;;16.80;82.26;97859.37;7318944;39;20403;31
2023/09/22 04:17:55;;;;;;;4.45;2.00;;;;;;;16.52;83.90;97883.72;7250560;40;20341;31
2023/09/22 04:28:35;;;;;;;4.15;1.58;;;;;;;16.58;83.64;97864.59;7240992;40;20265;31
2023/09/22 04:34:08;;;;;;;3.57;1.47;;;;;;;16.54;82.90;97855.19;7276913;40;20334;31
2023/09/22 04:39:26;;;;;;;3.40;1.80;;;;;;;16.67;82.26;97846.00;7314955;39;20277;31
2023/09/22 04:44:58;;;;;;;4.60;1.70;;;;;;;16.67;82.71;97838.66;7297057;39;20264;31
2023/09/22 04:50:28;;;;;;;2.90;1.40;;;;;;;16.72;82.38;97875.22;7233247;40;20237;31
2023/09/22 04:56:03;;;;;;;2.37;1.50;;;;;;;16.75;81.74;97885.62;7206231;40;20404;31
2023/09/22 05:01:39;;;;;;;2.70;1.60;;;;;;;16.78;81.24;97896.03;7256898;40;20777;31
2023/09/22 05:07:16;;;;;;;5.85;1.70;;;;;;;16.66;81.74;97910.47;7212371;40;20241;31
2023/09/22 05:12:52;;;;;;;1.90;1.60;;;;;;;16.75;82.06;97912.84;7168572;40;20236;31
2023/09/22 05:18:13;;;;;;;3.70;2.50;;;;;;;16.70;81.61;97910.84;7129091;40;20252;31
2023/09/22 05:23:49;;;;;;;2.30;1.60;;;;;;;16.70;81.82;97894.50;7186511;40;20244;31
2023/09/22 05:29:10;;;;;;;2.63;1.60;;;;;;;16.79;82.01;97898.53;7204780;40;20243;31
2023/09/22 05:34:44;;;;;;;2.70;1.60;;;;;;;16.69;81.50;97922.78;7249352;40;20353;31
2023/09/22 05:40:16;;;;;;;2.07;1.30;;;;;;;16.54;81.80;97931.34;7277284;40;20277;31
2023/09/22 05:45:52;;;;;;;3.15;1.30;;;;;;;16.59;81.15;97944.28;7235580;40;20511;31
2023/09/22 05:51:09;;;;;;;5.20;1.80;;;;;;;16.65;81.03;97965.13;7282786;40;20323;31
2023/09/22 05:56:47;;;;;;;2.70;1.30;;;;;;;16.63;81.11;97959.06;7260455;40;20329;31
2023/09/22 06:02:21;;;;;;;12.10;10.30;;;;;;;16.73;80.65;97934.84;7235330;40;20407;31
2023/09/22 06:07:57;;;;;;;6.60;3.75;;;;;;;16.77;80.35;97952.34;7256278;40;20328;31
2023/09/22 06:13:35;;;;;;;4.10;2.63;;;;;;;16.77;81.17;97955.06;7208266;40;20535;31
2023/09/22 06:18:55;;;;;;;4.17;2.03;;;;;;;16.75;80.71;97976.25;7221705;40;20278;31
2023/09/22 06:24:31;;;;;;;2.90;1.60;;;;;;;16.65;81.03;97960.50;7217167;40;20269;31
2023/09/22 06:30:10;;;;;;;1.30;1.20;;;;;;;16.58;80.87;97959.81;7245488;40;20497;31
2023/09/22 06:35:26;;;;;;;1.93;1.37;;;;;;;16.70;81.45;97964.41;7219497;40;20254;31
2023/09/22 06:40:48;;;;;;;2.90;1.63;;;;;;;16.71;81.05;97964.19;7248182;40;20251;31
2023/09/22 06:46:24;;;;;;;3.55;1.70;;;;;;;16.77;82.33;97979.56;7271090;40;20246;31
2023/09/22 06:51:42;;;;;;;3.73;1.70;;;;;;;16.74;82.44;97979.22;7270664;39;20228;31
2023/09/22 06:57:06;;;;;;;6.45;1.70;;;;;;;16.74;82.57;97982.75;7293266;39;20302;31
2023/09/22 07:02:42;;;;;;;4.57;1.50;;;;;;;16.82;82.46;97976.97;7265928;40;20284;31
2023/09/22 07:08:03;;;;;;;4.40;1.80;;;;;;;16.97;82.24;97988.22;7193310;40;20258;31
2023/09/22 07:13:21;;;;;;;2.63;1.90;;;;;;;17.04;82.01;98007.97;7264368;40;20349;31
2023/09/22 07:18:57;;;;;;;4.00;1.80;;;;;;;16.96;82.56;98008.34;7299395;39;20245;31
2023/09/22 07:24:32;;;;;;;2.55;1.90;;;;;;;16.83;82.92;98016.72;7269835;39;20254;31
2023/09/22 07:30:10;;;;;;;2.40;1.80;;;;;;;16.74;83.94;98023.59;7260468;40;20338;31
2023/09/22 07:35:44;;;;;;;2.78;1.80;;;;;;;16.74;83.70;98012.69;7205912;40;20284;31
2023/09/22 07:41:19;;;;;;;3.47;1.80;;;;;;;16.84;83.97;98021.13;7168138;40;20240;31
2023/09/22 07:46:50;;;;;;;3.47;1.95;;;;;;;16.92;83.94;98033.53;7179157;40;20259;31
2023/09/22 07:52:25;;;;;;;3.55;1.90;;;;;;;17.01;83.91;98041.13;7191521;40;20785;31
2023/09/22 07:58:03;;;;;;;3.97;1.57;;;;;;;17.02;83.98;98053.69;7154149;40;20233;31
2023/09/22 08:03:35;;;;;;;4.87;2.60;;;;;;;17.06;83.40;98059.47;7199975;40;20768;31
2023/09/22 08:09:12;;;;;;;6.25;2.70;;;;;;;17.21;82.74;98048.94;7168667;40;20239;31
2023/09/22 08:14:48;;;;;;;4.90;1.30;;;;;;;17.41;79.35;98043.97;7196916;40;20413;31
2023/09/22 08:20:11;;;;;;;2.30;1.50;;;;;;;17.34;77.42;98050.56;7045596;40;20239;31
2023/09/22 08:25:44;;;;;;;3.30;1.60;;;;;;;17.36;75.90;98056.63;7222060;40;20425;31
2023/09/22 08:31:19;;;;;;;2.50;1.30;;;;;;;17.35;74.33;98058.53;7239621;40;20350;31
2023/09/22 08:36:40;;;;;;;4.33;1.60;;;;;;;17.38;74.04;98051.75;7252808;40;20345;31
2023/09/22 08:42:18;;;;;;;2.10;1.10;;;;;;;17.47;71.79;98061.22;7205994;40;20236;31
2023/09/22 08:48:05;;;;;;;3.20;1.30;;;;;;;17.61;72.43;98051.78;7235676;40;20343;31
2023/09/22 08:58:46;;;;;;;3.53;1.13;;;;;;;17.65;71.38;98061.12;7219737;40;20641;31
2023/09/22 09:04:46;;;;;;;1.60;1.20;;;;;;;17.74;72.28;98056.97;7168741;40;20257;31
2023/09/22 09:10:20;;;;;;;4.90;1.80;;;;;;;17.79;71.19;98046.16;7252917;40;20226;31
2023/09/22 09:16:06;;;;;;;4.23;1.43;;;;;;;17.84;71.66;98051.72;7198671;40;20242;31
2023/09/22 09:21:20;;;;;;;1.73;1.00;;;;;;;17.93;70.62;98054.91;7225031;40;20344;31
2023/09/22 09:26:40;;;;;;;1.60;1.10;;;;;;;18.08;70.72;98046.22;7229041;40;20340;31
2023/09/22 09:32:17;;;;;;;3.30;1.10;;;;;;;18.21;68.14;98045.91;7229367;40;20247;31
2023/09/22 09:37:37;;;;;;;3.20;1.30;;;;;;;18.36;68.72;98054.38;7253448;40;20270;31
2023/09/22 09:43:13;;;;;;;2.90;1.27;;;;;;;18.30;69.27;98066.25;7273860;40;20271;31
2023/09/22 09:48:49;;;;;;;3.13;1.10;;;;;;;17.93;71.83;98063.91;7290214;39;20260;31
2023/09/22 09:54:25;;;;;;;4.10;1.40;;;;;;;17.82;73.38;98059.31;7275910;40;20251;31
2023/09/22 10:00:00;;;;;;;3.30;1.20;;;;;;;17.75;74.59;98068.69;7266254;40;20397;31
2023/09/22 10:05:38;;;;;;;2.90;1.10;;;;;;;17.71;74.65;98072.97;7248182;40;20257;31
2023/09/22 10:11:14;;;;;;;2.40;1.17;;;;;;;17.61;74.66;98081.75;7246657;40;20308;31
2023/09/22 10:16:49;;;;;;;4.50;1.50;;;;;;;17.52;75.16;98069.53;7216730;40;20260;31
2023/09/22 10:22:24;;;;;;;1.90;1.23;;;;;;;18.11;72.94;98052.00;7205337;40;20245;31
2023/09/22 10:28:09;;;;;;;2.07;1.23;;;;;;;18.47;72.39;98050.78;7243832;40;20259;31
2023/09/22 10:33:46;;;;;;;1.77;1.27;;;;;;;18.56;71.32;98051.25;7269340;40;20240;31
2023/09/22 10:39:23;;;;;;;4.93;1.40;;;;;;;18.63;70.37;98050.00;7219686;40;20258;31
2023/09/22 10:45:14;;;;;;;3.27;1.40;;;;;;;18.99;68.77;98054.16;7216467;40;20293;31
2023/09/22 10:55:51;;;;;;;1.87;1.23;;;;;;;19.27;67.44;98048.59;7190648;40;20250;31
2023/09/22 11:01:25;;;;;;;3.00;1.40;;;;;;;19.37;68.84;98043.28;7216798;40;20256;31
2023/09/22 11:07:04;;;;;;;2.20;1.40;;;;;;;19.69;66.71;98034.44;7250193;40;20261;31
2023/09/22 11:12:37;;;;;;;2.03;1.10;;;;;;;20.06;65.92;98023.69;7220778;40;20265;31
2023/09/22 11:18:09;;;;;;;3.95;1.50;;;;;;;20.32;64.34;98022.91;7249697;40;20260;31
2023/09/22 11:23:44;;;;;;;3.40;1.30;;;;;;;20.49;63.38;98023.62;7227858;40;20382;31
2023/09/22 11:29:20;;;;;;;3.93;1.37;;;;;;;20.49;62.54;98014.59;7227887;40;20260;31
2023/09/22 11:39:41;;;;;;;3.33;1.30;;;;;;;20.06;59.59;98018.22;7262567;40;21111;31
2023/09/22 11:45:18;;;;;;;3.45;1.30;;;;;;;19.70;59.95;98017.78;7287222;40;20411;31
2023/09/22 11:50:53;;;;;;;2.58;1.50;;;;;;;19.75;62.39;98008.81;7303866;39;20228;31
2023/09/22 11:56:29;;;;;;;2.50;1.40;;;;;;;19.88;61.68;98008.41;7295425;40;20360;31
2023/09/22 12:07:11;;;;;;;2.85;1.10;;;;;;;19.90;61.41;98006.28;7279115;40;21783;31
2023/09/22 12:12:31;;;;;;;2.80;1.25;;;;;;;20.27;59.94;98022.84;7278090;39;20315;31
2023/09/22 12:17:53;;;;;;;5.05;1.30;;;;;;;20.82;58.46;98019.00;7283016;39;20344;31
2023/09/22 12:23:35;;;;;;;3.10;1.20;;;;;;;20.96;56.36;98014.75;7335554;40;20356;31
2023/09/22 12:28:55;;;;;;;5.15;1.52;;;;;;;21.21;55.62;98006.72;7287285;39;20344;31
2023/09/22 12:34:17;;;;;;;3.97;1.30;;;;;;;21.22;54.41;98007.56;7279153;40;20236;31
2023/09/22 12:39:51;;;;;;;3.43;1.37;;;;;;;21.24;53.28;97994.41;7298708;39;20244;31
2023/09/22 12:45:09;;;;;;;6.70;1.50;;;;;;;21.38;54.35;97987.34;7260116;40;21320;31
2023/09/22 12:50:29;;;;;;;2.50;1.20;;;;;;;21.52;52.81;97981.13;7292103;40;20345;31
2023/09/22 12:56:09;;;;;;;3.90;1.30;;;;;;;21.59;51.69;97980.87;7247286;40;20252;31
2023/09/22 13:01:44;;;;;;;3.10;1.40;;;;;;;21.72;51.82;97976.84;7224554;40;20324;31
2023/09/22 13:07:05;;;;;;;5.03;1.60;;;;;;;21.81;51.54;97977.94;7223144;40;20368;31
2023/09/22 13:12:42;;;;;;;5.04;1.58;;;;;;;21.71;50.51;97969.72;7256168;40;20249;31
2023/09/22 13:18:17;;;;;;;2.50;1.42;;;;;;;21.77;50.22;97949.41;7246820;40;20258;31
2023/09/22 13:23:38;;;;;;;2.85;1.40;;;;;;;21.77;50.16;97961.22;7225367;40;20284;31
2023/09/22 13:34:21;;;;;;;3.95;1.35;;;;;;;21.66;47.83;97958.72;7263072;39;20291;31
2023/09/22 13:44:56;;;;;;;;;;;;;;;;;;;;;
2023/09/22 13:55:27;;;;;;;2.60;1.30;;;;;;;21.64;47.83;97948.00;7262249;39;20396;31
2023/09/22 14:00:47;;;;;;;4.12;1.60;;;;;;;21.57;47.48;97952.91;7357327;39;20766;31
2023/09/22 14:06:28;;;;;;;3.55;1.60;;;;;;;21.34;48.87;97950.59;7321073;39;20771;31
2023/09/22 14:12:04;;;;;;;2.65;1.40;;;;;;;21.16;49.54;97943.66;7302011;39;20241;31
2023/09/22 14:17:43;;;;;;;2.55;1.40;;;;;;;21.11;51.76;97938.09;7246103;39;20312;31
2023/09/22 14:23:07;;;;;;;2.45;1.40;;;;;;;21.35;52.29;97946.78;7237298;40;20245;31
2023/09/22 14:28:43;;;;;;;2.80;1.40;;;;;;;21.45;51.86;97935.87;7279166;39;20307;31
2023/09/22 14:34:19;;;;;;;3.15;1.30;;;;;;;21.51;51.28;97941.09;7197800;40;20242;31
2023/09/22 14:39:56;;;;;;;4.94;1.60;;;;;;;21.28;52.78;97933.28;7205064;40;20273;31
2023/09/22 14:45:30;;;;;;;2.37;1.45;;;;;;;21.02;51.72;97947.91;7216728;40;20258;31
2023/09/22 14:51:12;;;;;;;10.75;1.85;;;;;;;20.90;54.60;97956.34;7256336;40;20369;31
2023/09/22 14:56:33;;;;;;;4.70;1.30;;;;;;;20.97;50.42;97959.69;7225983;40;20264;31
2023/09/22 15:02:07;;;;;;;3.55;1.50;;;;;;;20.82;48.75;97954.09;7041767;40;20344;31
2023/09/22 15:07:45;;;;;;;4.70;1.40;;;;;;;20.76;48.26;97949.66;7244194;40;20242;31
2023/09/22 15:13:05;;;;;;;3.30;1.40;;;;;;;20.71;49.02;97955.12;7218730;40;20395;31
2023/09/22 15:18:39;;;;;;;2.85;1.55;;;;;;;20.67;49.80;97952.06;7240089;40;20246;31
2023/09/22 15:24:00;;;;;;;4.32;1.50;;;;;;;20.68;49.99;97961.94;7215973;40;20252;31
2023/09/22 15:29:20;;;;;;;3.33;1.30;;;;;;;20.63;51.58;97942.72;7267093;40;20245;31
2023/09/22 15:34:54;;;;;;;4.93;1.90;;;;;;;20.48;53.83;97950.81;7253797;40;20251;31
2023/09/22 15:40:15;;;;;;;4.00;1.62;;;;;;;20.43;55.76;97971.84;7250441;40;20334;31
2023/09/22 15:45:36;;;;;;;6.10;1.90;;;;;;;20.25;59.10;98000.38;7223263;40;20273;31
2023/09/22 15:56:17;;;;;;;3.54;1.52;;;;;;;19.44;60.70;98056.78;7314166;39;20375;31
2023/09/22 16:01:53;;;;;;;3.80;1.73;;;;;;;18.91;63.83;98063.56;7262298;40;20269;31
2023/09/22 16:12:34;;;;;;;3.60;1.40;;;;;;;18.14;67.04;98118.84;7236446;40;20280;31
2023/09/22 16:22:59;;;;;;;2.00;1.23;;;;;;;17.82;69.09;98138.34;7311230;39;20363;31
2023/09/22 16:28:33;;;;;;;3.07;1.40;;;;;;;17.90;69.07;98109.94;7294734;40;20272;31
2023/09/22 16:34:08;;;;;;;5.00;1.50;;;;;;;18.05;69.51;98110.22;7327403;39;20260;31
2023/09/22 16:44:47;;;;;;;4.37;1.30;;;;;;;18.14;70.37;98105.22;7323614;39;20275;31
2023/09/22 16:50:23;;;;;;;3.33;1.47;;;;;;;18.25;70.07;98109.84;7316436;39;20337;31
2023/09/22 16:56:02;;;;;;;2.03;1.20;;;;;;;18.16;69.77;98119.47;7300284;39;20259;31
2023/09/22 17:01:37;;;;;;;2.73;1.40;;;;;;;18.13;70.65;98109.00;7237680;40;20760;31
2023/09/22 17:07:01;;;;;;;3.65;1.40;;;;;;;18.03;70.22;98123.28;7240676;40;20242;31
2023/09/22 17:12:35;;;;;;;1.80;1.30;;;;;;;18.03;70.28;98128.75;7235058;40;21068;31
2023/09/22 17:18:09;;;;;;;2.77;1.37;;;;;;;17.98;70.29;98129.47;7225036;40;20242;31
2023/09/22 17:23:31;;;;;;;2.00;1.30;;;;;;;17.97;70.41;98143.34;7228020;40;20245;31
2023/09/22 17:28:48;;;;;;;3.40;1.40;;;;;;;17.79;70.81;98143.47;7252972;39;20416;31
2023/09/22 17:34:24;;;;;;;3.93;1.17;;;;;;;17.86;70.99;98153.16;7235557;40;20258;31
2023/09/22 17:45:04;;;;;;;3.73;1.50;;;;;;;17.61;71.26;98174.41;7297501;39;20256;31
2023/09/22 17:50:39;;;;;;;1.83;1.17;;;;;;;17.61;71.52;98177.13;7239622;40;20355;31
2023/09/22 17:56:16;;;;;;;3.13;1.30;;;;;;;17.53;71.39;98169.28;7202350;40;21016;31
2023/09/22 18:01:34;;;;;;;1.80;1.10;;;;;;;17.53;71.50;98177.44;7238125;40;21106;31
2023/09/22 18:12:15;;;;;;;3.47;1.20;;;;;;;17.34;71.38;98167.72;7301267;39;20817;31
2023/09/22 18:17:31;;;;;;;1.70;1.10;;;;;;;17.32;71.69;98187.03;7272728;40;20594;31
2023/09/22 18:23:09;;;;;;;2.68;0.90;;;;;;;17.29;71.78;98192.13;7304500;39;20225;31
2023/09/22 18:28:53;;;;;;;1.40;1.10;;;;;;;17.15;70.93;98213.28;7264658;40;20335;31
2023/09/22 18:34:11;;;;;;;2.63;1.40;;;;;;;16.88;71.56;98221.00;7231475;40;20345;31
2023/09/22 18:45:12;;;;;;;3.47;1.30;;;;;;;16.59;72.25;98238.13;7251876;40;20342;31
2023/09/22 18:50:43;;;;;;;2.53;0.98;;;;;;;16.50;71.94;98244.91;7304926;39;20312;31
2023/09/22 18:56:16;;;;;;;1.83;1.20;;;;;;;16.56;71.99;98255.72;7280001;40;20264;31
2023/09/22 19:01:50;;;;;;;1.60;1.00;;;;;;;16.50;72.40;98259.34;7282376;39;20239;31
2023/09/22 19:07:25;;;;;;;2.13;1.10;;;;;;;16.45;72.41;98280.97;7254638;40;20283;31
2023/09/22 19:12:46;;;;;;;1.85;1.20;;;;;;;16.55;71.63;98283.12;7229474;40;20360;31
2023/09/22 19:18:18;;;;;;;3.37;1.10;;;;;;;16.48;71.70;98293.28;7233989;40;21088;31
2023/09/22 19:28:42;;;;;;;1.30;1.00;;;;;;;16.50;71.70;98305.59;7295599;39;20267;31
2023/09/22 19:39:45;;;;;;;1.50;1.00;;;;;;;16.35;72.52;98326.06;7271323;39;20891;31
2023/09/22 19:45:19;;;;;;;2.70;1.00;;;;;;;16.35;72.49;98339.66;7278431;39;20796;31
2023/09/22 19:50:52;;;;;;;3.60;1.20;;;;;;;16.23;73.33;98336.84;7190290;40;20361;31
2023/09/22 19:56:13;;;;;;;2.15;1.20;;;;;;;16.17;72.27;98338.56;7186986;40;20708;31
2023/09/22 20:01:48;;;;;;;3.30;1.40;;;;;;;16.15;72.37;98354.25;7278398;39;20265;31
2023/09/22 20:07:24;;;;;;;2.00;1.20;;;;;;;16.09;72.37;98366.06;7205999;40;20780;31
2023/09/22 20:12:56;;;;;;;2.20;1.30;;;;;;;16.14;71.99;98377.09;7190518;40;20296;31
2023/09/22 20:18:17;;;;;;;1.40;1.00;;;;;;;16.13;72.67;98390.91;7197688;40;20321;31
2023/09/22 20:24:06;;;;;;;;;;;;;;;;;;;;;
2023/09/22 20:29:32;;;;;;;1.70;1.20;;;;;;;16.21;71.40;98388.72;7220386;40;20337;31
2023/09/22 20:35:09;;;;;;;1.80;1.20;;;;;;;16.19;72.43;98407.16;7235552;40;20331;31
2023/09/22 20:40:47;;;;;;;3.13;1.20;;;;;;;16.04;72.90;98403.09;7281477;39;20276;31
2023/09/22 20:51:13;;;;;;;3.30;1.10;;;;;;;16.05;73.22;98410.22;7256962;40;20347;31
2023/09/22 21:01:52;;;;;;;1.63;1.13;;;;;;;15.93;74.24;98429.09;7307225;39;20381;31
2023/09/22 21:07:28;;;;;;;2.20;1.30;;;;;;;15.96;73.08;98439.56;7298813;39;20362;31
2023/09/22 21:12:52;;;;;;;1.10;1.00;;;;;;;16.04;72.69;98452.03;7285714;40;20249;31
2023/09/22 21:18:28;;;;;;;1.30;1.00;;;;;;;15.84;72.05;98449.44;7256156;40;20262;31
2023/09/22 21:28:57;;;;;;;0.80;0.80;;;;;;;15.79;72.12;98462.88;7258212;40;20251;31
2023/09/22 21:34:30;;;;;;;0.80;0.80;;;;;;;15.65;71.50;98474.84;7295349;39;20413;31
2023/09/22 21:44:55;;;;;;;1.10;0.92;;;;;;;15.54;71.52;98483.66;7342886;39;20272;31
2023/09/22 21:50:32;;;;;;;2.33;1.07;;;;;;;15.51;71.76;98497.69;7310899;39;20254;31
2023/09/22 21:56:11;;;;;;;0.73;0.73;;;;;;;15.45;72.45;98512.06;7262790;39;20308;31
2023/09/22 22:06:52;;;;;;;0.70;0.70;;;;;;;15.49;72.36;98530.44;7233043;40;21198;31
2023/09/22 22:12:08;;;;;;;2.50;0.90;;;;;;;15.48;71.20;98542.38;7039691;40;21241;31
2023/09/22 22:17:29;;;;;;;1.10;0.80;;;;;;;15.43;71.61;98553.06;7251200;40;20268;31
2023/09/22 22:23:08;;;;;;;1.00;0.90;;;;;;;15.31;71.40;98558.28;7281636;40;20342;31
2023/09/22 22:28:26;;;;;;;1.45;0.90;;;;;;;15.29;71.14;98570.41;7263991;40;20366;31
2023/09/22 22:34:01;;;;;;;0.70;0.70;;;;;;;15.26;71.55;98562.72;7238420;40;20373;31
2023/09/22 22:39:37;;;;;;;3.30;0.90;;;;;;;15.12;70.62;98567.31;7290915;39;20777;31
2023/09/22 22:44:57;;;;;;;1.65;1.00;;;;;;;15.15;71.19;98582.34;7282328;40;20267;31
2023/09/22 22:50:33;;;;;;;0.70;0.70;;;;;;;15.18;71.07;98587.38;7249981;40;20363;31
2023/09/22 23:01:15;;;;;;;1.10;1.00;;;;;;;15.12;70.80;98599.91;7274969;39;20378;31
2023/09/22 23:06:38;;;;;;;1.70;1.20;;;;;;;15.16;70.81;98614.72;7221210;40;20426;31
2023/09/22 23:11:56;;;;;;;1.30;1.00;;;;;;;15.22;71.29;98623.91;7246723;39;20244;31
2023/09/22 23:17:36;;;;;;;1.73;1.00;;;;;;;15.16;71.69;98633.72;7298993;40;20241;31
2023/09/22 23:22:56;;;;;;;1.10;1.00;;;;;;;15.12;71.34;98632.47;7274464;40;20258;31
2023/09/22 23:33:35;;;;;;;1.87;1.10;;;;;;;15.10;71.66;98645.41;7324151;39;21096;31
2023/09/22 23:39:07;;;;;;;1.67;0.93;;;;;;;15.14;71.96;98654.78;7298710;39;20516;31
2023/09/22 23:44:27;;;;;;;2.27;1.10;;;;;;;15.08;72.14;98655.66;7277195;40;20495;31
2023/09/22 23:55:09;;;;;;;1.60;1.20;;;;;;;15.06;72.64;98665.03;7278411;39;21103;31
